CST,Max TemperatureF,Mean TemperatureF,Min TemperatureF,Max Dew PointF,MeanDew PointF,Min DewpointF,Max Humidity, Mean Humidity, Min Humidity, Max Sea Level PressureIn, Mean Sea Level PressureIn, Min Sea Level PressureIn, Max VisibilityMiles, Mean VisibilityMiles, Min VisibilityMiles, Max Wind SpeedMPH, Mean Wind SpeedMPH, Max Gust SpeedMPH,PrecipitationIn, CloudCover, Events, WindDirDegrees
2012-12-1,66,52,37,57,47,30,88,80,68,29.98,29.85,29.75,7,3,0,13,3,,0.00,7,Fog,183
2012-12-2,60,50,39,50,41,36,88,81,59,30.03,29.93,29.81,10,3,0,10,1,,0.00,5,Fog,146
2012-12-3,66,52,37,59,43,28,88,67,37,30.08,29.81,29.63,10,8,1,23,8,31,0.01,2,,231
2012-12-4,64,45,26,34,23,10,81,57,13,30.31,30.22,30.08,10,10,5,7,2,,0.00,0,,293
2012-12-5,57,45,33,30,26,18,70,49,21,30.34,30.16,29.95,10,10,7,17,7,22,0.00,0,,148
2012-12-6,53,48,44,41,34,28,81,58,38,29.99,29.93,29.88,10,10,10,16,10,22,0.00,3,Rain,243
2012-12-7,50,42,33,36,29,23,81,63,37,29.98,29.93,29.87,10,10,10,14,6,,0.00,3,,22
2012-12-8,44,34,24,32,27,19,86,70,53,30.02,29.95,29.89,10,9,5,9,3,,0.00,3,,106
2012-12-9,41,30,19,36,23,7,87,70,54,30.09,29.95,29.84,10,8,2,26,10,33,0.12,7,Rain,290
2012-12-10,30,20,10,9,5,1,68,55,29,30.09,30.01,29.93,10,10,7,22,11,31,0.00,2,,274
2012-12-11,48,32,17,19,15,9,74,53,24,30.04,29.98,29.92,10,10,7,17,4,21,0.00,2,,225
2012-12-12,55,40,26,19,12,3,69,39,12,30.06,30.02,29.97,10,10,10,28,9,38,0.00,0,,184
2012-12-13,53,40,26,19,14,9,69,39,21,30.08,30.04,30.01,10,10,7,16,10,23,0.00,0,,198
2012-12-14,57,40,23,41,27,16,80,58,33,30.07,29.90,29.63,10,10,7,18,5,25,0.00,3,Rain,159
2012-12-15,51,45,39,46,41,34,87,81,71,29.71,29.56,29.45,10,9,5,21,12,25,0.49,8,Rain,242
2012-12-16,39,36,33,34,30,28,87,78,70,29.81,29.75,29.70,10,6,2,9,6,,0.00,8,,333
2012-12-17,37,32,28,30,28,25,86,80,75,29.79,29.71,29.63,10,5,2,9,2,,0.00,6,,188
2012-12-18,42,35,28,30,28,23,86,76,61,29.87,29.67,29.48,10,7,4,22,7,29,0.00,2,,240
2012-12-19,39,34,30,34,30,27,87,81,75,29.92,29.81,29.67,10,4,1,24,5,32,0.09,5,Rain-Snow,43
2012-12-20,35,28,21,30,19,12,86,75,68,30.20,29.93,29.65,10,6,0,34,24,45,0.01,5,Snow,318
2012-12-21,30,21,12,19,12,5,80,69,55,30.34,30.26,30.19,10,10,10,13,4,,0.10,0,,296
2012-12-22,39,28,17,28,19,10,86,70,56,30.18,30.02,29.91,10,10,7,9,2,,0.00,0,,263
2012-12-23,26,19,12,18,13,7,86,74,64,30.04,30.00,29.96,10,8,5,10,7,,0.00,0,,4
2012-12-24,21,18,15,18,11,7,86,71,63,30.24,30.10,29.99,10,8,2,16,11,23,0.00,5,Snow,338
2012-12-25,15,10,6,7,3,-2,79,67,58,30.47,30.35,30.24,10,10,10,20,12,23,0.00,0,,5
2012-12-26,21,13,5,10,4,-2,73,68,58,30.33,30.24,30.17,10,10,10,10,6,,0.00,0,,2
2012-12-27,28,19,10,21,16,5,80,73,68,30.17,30.06,29.97,10,9,2,14,4,18,0.00,6,Snow,90
2012-12-28,28,24,19,21,19,14,80,77,74,30.09,29.99,29.95,10,7,4,18,4,23,0.00,8,Snow,319
2012-12-29,32,24,15,19,13,10,80,71,55,30.24,30.18,30.09,10,8,2,12,7,17,0.00,3,Snow,280
2012-12-30,46,29,12,27,19,7,85,65,37,30.26,30.12,29.98,10,10,7,23,5,30,0.00,0,,215
2012-12-31,32,26,17,21,15,10,80,70,64,30.23,30.17,30.08,10,10,2,14,8,18,0.00,5,Snow,10